sensor_id;sensor_type;location;lat;lon;timestamp;P1;durP1;ratioP1;P2;durP2;ratioP2
19032;SDS011;9649;51.042;13.804;2022-09-12T00:04:47;18.35;;;12.35;;
19032;SDS011;9649;51.042;13.804;2022-09-12T00:09:51;20.45;;;14.07;;
19032;SDS011;9649;51.042;13.804;2022-09-12T00:14:53;21.17;;;14.07;;
19032;SDS011;9649;51.042;13.804;2022-09-12T00:19:56;23.23;;;13.70;;
19032;SDS011;9649;51.042;13.804;2022-09-12T00:25:00;24.42;;;14.43;;
19032;SDS011;9649;51.042;13.804;2022-09-12T00:30:04;20.52;;;13.85;;
19032;SDS011;9649;51.042;13.804;2022-09-12T00:35:07;18.17;;;12.40;;
19032;SDS011;9649;51.042;13.804;2022-09-12T00:40:11;22.40;;;13.65;;
19032;SDS011;9649;51.042;13.804;2022-09-12T00:45:17;19.67;;;12.10;;
19032;SDS011;9649;51.042;13.804;2022-09-12T00:50:24;22.88;;;13.18;;
19032;SDS011;9649;51.042;13.804;2022-09-12T00:55:29;20.20;;;13.15;;
19032;SDS011;9649;51.042;13.804;2022-09-12T01:00:35;22.15;;;13.40;;
19032;SDS011;9649;51.042;13.804;2022-09-12T01:05:38;22.63;;;14.05;;
19032;SDS011;9649;51.042;13.804;2022-09-12T01:10:45;20.02;;;12.80;;
19032;SDS011;9649;51.042;13.804;2022-09-12T01:15:49;20.15;;;13.52;;
19032;SDS011;9649;51.042;13.804;2022-09-12T01:20:54;22.38;;;13.38;;
19032;SDS011;9649;51.042;13.804;2022-09-12T01:26:17;21.33;;;13.27;;
19032;SDS011;9649;51.042;13.804;2022-09-12T01:31:44;21.73;;;14.25;;
19032;SDS011;9649;51.042;13.804;2022-09-12T01:36:57;25.35;;;14.32;;
19032;SDS011;9649;51.042;13.804;2022-09-12T01:42:09;24.40;;;15.25;;
19032;SDS011;9649;51.042;13.804;2022-09-12T01:47:20;26.92;;;16.75;;
19032;SDS011;9649;51.042;13.804;2022-09-12T01:52:30;30.15;;;17.52;;
19032;SDS011;9649;51.042;13.804;2022-09-12T01:57:38;27.75;;;16.13;;
19032;SDS011;9649;51.042;13.804;2022-09-12T02:02:48;27.83;;;15.98;;
19032;SDS011;9649;51.042;13.804;2022-09-12T02:07:59;24.65;;;14.98;;
19032;SDS011;9649;51.042;13.804;2022-09-12T02:13:07;25.20;;;15.90;;
19032;SDS011;9649;51.042;13.804;2022-09-12T02:18:15;25.25;;;15.40;;
19032;SDS011;9649;51.042;13.804;2022-09-12T02:23:21;27.63;;;16.65;;
19032;SDS011;9649;51.042;13.804;2022-09-12T02:28:28;27.30;;;15.85;;
19032;SDS011;9649;51.042;13.804;2022-09-12T02:33:39;32.83;;;17.13;;
19032;SDS011;9649;51.042;13.804;2022-09-12T02:38:46;28.48;;;16.77;;
19032;SDS011;9649;51.042;13.804;2022-09-12T02:43:49;26.88;;;16.73;;
19032;SDS011;9649;51.042;13.804;2022-09-12T02:48:55;31.38;;;18.48;;
19032;SDS011;9649;51.042;13.804;2022-09-12T02:53:59;30.90;;;17.65;;
19032;SDS011;9649;51.042;13.804;2022-09-12T02:59:03;27.25;;;16.67;;
19032;SDS011;9649;51.042;13.804;2022-09-12T03:04:21;29.88;;;18.08;;
19032;SDS011;9649;51.042;13.804;2022-09-12T03:09:36;25.90;;;16.33;;
19032;SDS011;9649;51.042;13.804;2022-09-12T03:14:51;29.45;;;18.02;;
19032;SDS011;9649;51.042;13.804;2022-09-12T03:20:04;32.90;;;19.38;;
19032;SDS011;9649;51.042;13.804;2022-09-12T03:25:13;27.83;;;17.40;;
19032;SDS011;9649;51.042;13.804;2022-09-12T03:30:19;33.35;;;18.50;;
19032;SDS011;9649;51.042;13.804;2022-09-12T03:35:23;31.52;;;18.17;;
19032;SDS011;9649;51.042;13.804;2022-09-12T03:40:26;30.27;;;19.02;;
19032;SDS011;9649;51.042;13.804;2022-09-12T03:45:29;35.97;;;19.95;;
19032;SDS011;9649;51.042;13.804;2022-09-12T03:50:33;31.00;;;17.58;;
19032;SDS011;9649;51.042;13.804;2022-09-12T03:55:37;29.40;;;18.15;;
19032;SDS011;9649;51.042;13.804;2022-09-12T04:00:40;30.38;;;16.92;;
19032;SDS011;9649;51.042;13.804;2022-09-12T04:05:45;28.92;;;17.88;;
19032;SDS011;9649;51.042;13.804;2022-09-12T04:10:48;31.90;;;18.92;;
19032;SDS011;9649;51.042;13.804;2022-09-12T04:15:54;29.15;;;18.08;;
19032;SDS011;9649;51.042;13.804;2022-09-12T04:21:01;24.40;;;16.77;;
19032;SDS011;9649;51.042;13.804;2022-09-12T04:26:05;28.00;;;18.60;;
19032;SDS011;9649;51.042;13.804;2022-09-12T04:31:09;27.25;;;16.60;;
19032;SDS011;9649;51.042;13.804;2022-09-12T04:36:17;29.60;;;17.30;;
19032;SDS011;9649;51.042;13.804;2022-09-12T04:41:20;23.85;;;15.98;;
19032;SDS011;9649;51.042;13.804;2022-09-12T04:46:24;26.38;;;15.57;;
19032;SDS011;9649;51.042;13.804;2022-09-12T04:51:29;24.33;;;15.63;;
19032;SDS011;9649;51.042;13.804;2022-09-12T04:56:35;26.08;;;16.77;;
19032;SDS011;9649;51.042;13.804;2022-09-12T05:01:39;27.58;;;17.55;;
19032;SDS011;9649;51.042;13.804;2022-09-12T05:06:43;29.88;;;16.60;;
19032;SDS011;9649;51.042;13.804;2022-09-12T05:11:47;34.33;;;19.15;;
19032;SDS011;9649;51.042;13.804;2022-09-12T05:17:06;30.45;;;17.90;;
19032;SDS011;9649;51.042;13.804;2022-09-12T05:22:10;29.52;;;18.63;;
19032;SDS011;9649;51.042;13.804;2022-09-12T05:27:13;30.02;;;18.50;;
19032;SDS011;9649;51.042;13.804;2022-09-12T05:32:16;28.33;;;17.58;;
19032;SDS011;9649;51.042;13.804;2022-09-12T05:37:20;29.23;;;17.27;;
19032;SDS011;9649;51.042;13.804;2022-09-12T05:42:23;24.15;;;15.75;;
19032;SDS011;9649;51.042;13.804;2022-09-12T05:47:26;23.80;;;15.80;;
19032;SDS011;9649;51.042;13.804;2022-09-12T05:52:30;26.58;;;16.35;;
19032;SDS011;9649;51.042;13.804;2022-09-12T05:57:33;28.17;;;16.77;;
19032;SDS011;9649;51.042;13.804;2022-09-12T06:02:36;26.65;;;17.58;;
19032;SDS011;9649;51.042;13.804;2022-09-12T06:07:40;23.35;;;15.23;;
19032;SDS011;9649;51.042;13.804;2022-09-12T06:12:43;22.75;;;15.10;;
19032;SDS011;9649;51.042;13.804;2022-09-12T06:17:47;24.08;;;15.40;;
19032;SDS011;9649;51.042;13.804;2022-09-12T06:22:53;21.95;;;15.32;;
19032;SDS011;9649;51.042;13.804;2022-09-12T06:27:55;25.35;;;14.65;;
19032;SDS011;9649;51.042;13.804;2022-09-12T06:32:58;22.27;;;14.48;;
19032;SDS011;9649;51.042;13.804;2022-09-12T06:38:02;21.23;;;14.48;;
19032;SDS011;9649;51.042;13.804;2022-09-12T06:43:05;25.25;;;15.15;;
19032;SDS011;9649;51.042;13.804;2022-09-12T06:48:07;21.55;;;14.80;;
19032;SDS011;9649;51.042;13.804;2022-09-12T06:53:11;22.73;;;14.77;;
19032;SDS011;9649;51.042;13.804;2022-09-12T06:58:14;21.67;;;15.30;;
19032;SDS011;9649;51.042;13.804;2022-09-12T07:03:17;19.17;;;13.98;;
19032;SDS011;9649;51.042;13.804;2022-09-12T07:08:22;21.80;;;14.38;;
19032;SDS011;9649;51.042;13.804;2022-09-12T07:13:25;20.75;;;13.93;;
19032;SDS011;9649;51.042;13.804;2022-09-12T07:18:27;22.20;;;14.25;;
19032;SDS011;9649;51.042;13.804;2022-09-12T07:23:32;21.88;;;13.82;;
19032;SDS011;9649;51.042;13.804;2022-09-12T07:28:35;24.40;;;14.63;;
19032;SDS011;9649;51.042;13.804;2022-09-12T07:33:38;19.42;;;12.57;;
19032;SDS011;9649;51.042;13.804;2022-09-12T07:38:44;22.88;;;13.45;;
19032;SDS011;9649;51.042;13.804;2022-09-12T07:43:49;18.67;;;12.75;;
19032;SDS011;9649;51.042;13.804;2022-09-12T07:48:54;17.02;;;11.30;;
19032;SDS011;9649;51.042;13.804;2022-09-12T07:53:59;16.48;;;11.70;;
19032;SDS011;9649;51.042;13.804;2022-09-12T07:59:02;18.98;;;12.15;;
19032;SDS011;9649;51.042;13.804;2022-09-12T08:04:05;14.95;;;9.90;;
19032;SDS011;9649;51.042;13.804;2022-09-12T08:09:09;14.57;;;9.25;;
19032;SDS011;9649;51.042;13.804;2022-09-12T08:14:15;13.82;;;8.68;;
19032;SDS011;9649;51.042;13.804;2022-09-12T08:19:18;13.13;;;8.95;;
19032;SDS011;9649;51.042;13.804;2022-09-12T08:24:24;14.32;;;8.13;;
19032;SDS011;9649;51.042;13.804;2022-09-12T08:29:26;10.45;;;7.43;;
19032;SDS011;9649;51.042;13.804;2022-09-12T08:34:30;11.95;;;7.65;;
19032;SDS011;9649;51.042;13.804;2022-09-12T08:39:34;9.95;;;7.32;;
19032;SDS011;9649;51.042;13.804;2022-09-12T08:44:44;10.30;;;7.18;;
19032;SDS011;9649;51.042;13.804;2022-09-12T08:50:00;10.30;;;5.78;;
19032;SDS011;9649;51.042;13.804;2022-09-12T08:55:12;6.93;;;5.32;;
19032;SDS011;9649;51.042;13.804;2022-09-12T09:00:34;5.78;;;4.47;;
19032;SDS011;9649;51.042;13.804;2022-09-12T09:05:46;5.75;;;4.15;;
19032;SDS011;9649;51.042;13.804;2022-09-12T09:10:55;6.40;;;4.38;;
19032;SDS011;9649;51.042;13.804;2022-09-12T09:16:07;5.90;;;3.80;;
19032;SDS011;9649;51.042;13.804;2022-09-12T09:21:19;4.10;;;3.70;;
19032;SDS011;9649;51.042;13.804;2022-09-12T09:26:27;4.50;;;3.88;;
19032;SDS011;9649;51.042;13.804;2022-09-12T09:31:37;4.18;;;3.70;;
19032;SDS011;9649;51.042;13.804;2022-09-12T09:36:44;3.63;;;3.28;;
19032;SDS011;9649;51.042;13.804;2022-09-12T09:41:55;4.03;;;3.35;;
19032;SDS011;9649;51.042;13.804;2022-09-12T09:47:11;5.65;;;3.40;;
19032;SDS011;9649;51.042;13.804;2022-09-12T09:52:14;4.32;;;3.28;;
19032;SDS011;9649;51.042;13.804;2022-09-12T09:57:39;3.85;;;2.80;;
19032;SDS011;9649;51.042;13.804;2022-09-12T10:02:55;3.67;;;2.50;;
19032;SDS011;9649;51.042;13.804;2022-09-12T10:08:01;1.90;;;1.65;;
19032;SDS011;9649;51.042;13.804;2022-09-12T10:13:07;4.10;;;2.40;;
19032;SDS011;9649;51.042;13.804;2022-09-12T10:18:34;2.25;;;1.80;;
19032;SDS011;9649;51.042;13.804;2022-09-12T10:23:39;3.15;;;2.35;;
19032;SDS011;9649;51.042;13.804;2022-09-12T10:28:46;2.58;;;1.90;;
19032;SDS011;9649;51.042;13.804;2022-09-12T10:33:52;3.10;;;2.05;;
19032;SDS011;9649;51.042;13.804;2022-09-12T10:38:56;2.10;;;1.80;;
19032;SDS011;9649;51.042;13.804;2022-09-12T10:44:05;2.55;;;1.80;;
19032;SDS011;9649;51.042;13.804;2022-09-12T10:49:12;2.08;;;1.90;;
19032;SDS011;9649;51.042;13.804;2022-09-12T10:54:21;2.17;;;1.92;;
19032;SDS011;9649;51.042;13.804;2022-09-12T10:59:31;2.33;;;2.10;;
19032;SDS011;9649;51.042;13.804;2022-09-12T11:04:45;2.33;;;1.60;;
19032;SDS011;9649;51.042;13.804;2022-09-12T11:10:02;2.05;;;1.80;;
19032;SDS011;9649;51.042;13.804;2022-09-12T11:15:25;2.75;;;1.38;;
19032;SDS011;9649;51.042;13.804;2022-09-12T11:20:42;1.45;;;0.82;;
19032;SDS011;9649;51.042;13.804;2022-09-12T11:25:58;1.08;;;0.90;;
19032;SDS011;9649;51.042;13.804;2022-09-12T11:31:15;2.83;;;0.90;;
19032;SDS011;9649;51.042;13.804;2022-09-12T11:36:32;1.00;;;0.90;;
19032;SDS011;9649;51.042;13.804;2022-09-12T11:41:39;1.58;;;0.90;;
19032;SDS011;9649;51.042;13.804;2022-09-12T11:46:45;1.02;;;1.02;;
19032;SDS011;9649;51.042;13.804;2022-09-12T11:51:52;1.52;;;0.95;;
19032;SDS011;9649;51.042;13.804;2022-09-12T11:57:00;1.00;;;0.90;;
19032;SDS011;9649;51.042;13.804;2022-09-12T12:02:11;1.38;;;1.00;;
19032;SDS011;9649;51.042;13.804;2022-09-12T12:07:18;0.95;;;0.95;;
19032;SDS011;9649;51.042;13.804;2022-09-12T12:12:21;2.25;;;1.38;;
19032;SDS011;9649;51.042;13.804;2022-09-12T12:17:28;3.40;;;1.02;;
19032;SDS011;9649;51.042;13.804;2022-09-12T12:22:31;1.63;;;1.08;;
19032;SDS011;9649;51.042;13.804;2022-09-12T12:27:44;1.27;;;1.00;;
19032;SDS011;9649;51.042;13.804;2022-09-12T12:32:53;1.10;;;0.98;;
19032;SDS011;9649;51.042;13.804;2022-09-12T12:38:01;1.90;;;1.33;;
19032;SDS011;9649;51.042;13.804;2022-09-12T12:48:35;1.10;;;0.80;;
19032;SDS011;9649;51.042;13.804;2022-09-12T12:54:03;1.15;;;0.80;;
19032;SDS011;9649;51.042;13.804;2022-09-12T12:59:15;1.83;;;0.80;;
19032;SDS011;9649;51.042;13.804;2022-09-12T13:04:22;2.08;;;1.00;;
19032;SDS011;9649;51.042;13.804;2022-09-12T13:09:29;1.40;;;0.90;;
19032;SDS011;9649;51.042;13.804;2022-09-12T13:20:03;0.90;;;0.90;;
19032;SDS011;9649;51.042;13.804;2022-09-12T13:25:28;1.13;;;0.80;;
19032;SDS011;9649;51.042;13.804;2022-09-12T13:30:33;0.68;;;0.68;;
19032;SDS011;9649;51.042;13.804;2022-09-12T13:35:45;1.50;;;0.90;;
19032;SDS011;9649;51.042;13.804;2022-09-12T13:41:02;2.20;;;1.25;;
19032;SDS011;9649;51.042;13.804;2022-09-12T13:46:21;0.85;;;0.77;;
19032;SDS011;9649;51.042;13.804;2022-09-12T13:51:31;1.42;;;0.90;;
19032;SDS011;9649;51.042;13.804;2022-09-12T13:56:35;1.05;;;0.73;;
19032;SDS011;9649;51.042;13.804;2022-09-12T14:01:48;1.75;;;1.02;;
19032;SDS011;9649;51.042;13.804;2022-09-12T14:06:52;0.82;;;0.70;;
19032;SDS011;9649;51.042;13.804;2022-09-12T14:11:56;1.02;;;0.90;;
19032;SDS011;9649;51.042;13.804;2022-09-12T14:17:00;1.33;;;1.00;;
19032;SDS011;9649;51.042;13.804;2022-09-12T14:22:06;0.98;;;0.68;;
19032;SDS011;9649;51.042;13.804;2022-09-12T14:27:17;0.80;;;0.73;;
19032;SDS011;9649;51.042;13.804;2022-09-12T14:32:23;0.82;;;0.82;;
19032;SDS011;9649;51.042;13.804;2022-09-12T14:37:27;2.38;;;0.80;;
19032;SDS011;9649;51.042;13.804;2022-09-12T14:42:30;0.70;;;0.70;;
19032;SDS011;9649;51.042;13.804;2022-09-12T14:47:34;1.13;;;1.02;;
19032;SDS011;9649;51.042;13.804;2022-09-12T14:52:42;0.70;;;0.70;;
19032;SDS011;9649;51.042;13.804;2022-09-12T14:57:45;1.63;;;0.90;;
19032;SDS011;9649;51.042;13.804;2022-09-12T15:02:51;10.77;;;3.50;;
19032;SDS011;9649;51.042;13.804;2022-09-12T15:07:59;2.15;;;1.20;;
19032;SDS011;9649;51.042;13.804;2022-09-12T15:13:03;9.48;;;3.63;;
19032;SDS011;9649;51.042;13.804;2022-09-12T15:18:18;5.25;;;2.63;;
19032;SDS011;9649;51.042;13.804;2022-09-12T15:23:28;11.68;;;4.68;;
19032;SDS011;9649;51.042;13.804;2022-09-12T15:28:33;2.25;;;1.60;;
19032;SDS011;9649;51.042;13.804;2022-09-12T15:33:36;24.38;;;11.27;;
19032;SDS011;9649;51.042;13.804;2022-09-12T15:38:40;1.33;;;1.20;;
19032;SDS011;9649;51.042;13.804;2022-09-12T15:43:43;2.00;;;0.95;;
19032;SDS011;9649;51.042;13.804;2022-09-12T15:48:47;1.60;;;1.23;;
19032;SDS011;9649;51.042;13.804;2022-09-12T15:53:51;3.22;;;1.13;;
19032;SDS011;9649;51.042;13.804;2022-09-12T15:58:54;4.85;;;2.20;;
19032;SDS011;9649;51.042;13.804;2022-09-12T16:04:00;0.90;;;0.90;;
19032;SDS011;9649;51.042;13.804;2022-09-12T16:09:08;1.15;;;0.90;;
19032;SDS011;9649;51.042;13.804;2022-09-12T16:14:17;6.53;;;3.83;;
19032;SDS011;9649;51.042;13.804;2022-09-12T16:19:20;5.38;;;2.30;;
19032;SDS011;9649;51.042;13.804;2022-09-12T16:24:25;7.03;;;3.53;;
19032;SDS011;9649;51.042;13.804;2022-09-12T16:29:27;3.08;;;1.75;;
19032;SDS011;9649;51.042;13.804;2022-09-12T16:34:30;5.13;;;1.80;;
19032;SDS011;9649;51.042;13.804;2022-09-12T16:39:34;2.90;;;1.70;;
19032;SDS011;9649;51.042;13.804;2022-09-12T16:44:37;2.15;;;1.27;;
19032;SDS011;9649;51.042;13.804;2022-09-12T16:49:40;3.17;;;2.15;;
19032;SDS011;9649;51.042;13.804;2022-09-12T16:54:44;3.28;;;1.20;;
19032;SDS011;9649;51.042;13.804;2022-09-12T16:59:47;2.03;;;1.65;;
19032;SDS011;9649;51.042;13.804;2022-09-12T17:04:50;9.68;;;3.90;;
19032;SDS011;9649;51.042;13.804;2022-09-12T17:09:54;3.25;;;1.90;;
19032;SDS011;9649;51.042;13.804;2022-09-12T17:14:57;4.22;;;1.80;;
19032;SDS011;9649;51.042;13.804;2022-09-12T17:20:00;6.63;;;2.50;;
19032;SDS011;9649;51.042;13.804;2022-09-12T17:25:04;3.92;;;1.90;;
19032;SDS011;9649;51.042;13.804;2022-09-12T17:30:08;3.63;;;2.17;;
19032;SDS011;9649;51.042;13.804;2022-09-12T17:35:11;4.75;;;2.63;;
19032;SDS011;9649;51.042;13.804;2022-09-12T17:40:15;2.22;;;1.92;;
19032;SDS011;9649;51.042;13.804;2022-09-12T17:45:19;4.63;;;2.70;;
19032;SDS011;9649;51.042;13.804;2022-09-12T17:50:21;3.22;;;2.20;;
19032;SDS011;9649;51.042;13.804;2022-09-12T17:55:36;5.80;;;2.10;;
19032;SDS011;9649;51.042;13.804;2022-09-12T18:00:40;4.93;;;2.40;;
19032;SDS011;9649;51.042;13.804;2022-09-12T18:06:01;8.32;;;2.50;;
19032;SDS011;9649;51.042;13.804;2022-09-12T18:11:05;5.32;;;2.20;;
19032;SDS011;9649;51.042;13.804;2022-09-12T18:16:09;3.42;;;2.20;;
19032;SDS011;9649;51.042;13.804;2022-09-12T18:21:13;6.03;;;2.55;;
19032;SDS011;9649;51.042;13.804;2022-09-12T18:26:17;3.25;;;2.42;;
19032;SDS011;9649;51.042;13.804;2022-09-12T18:31:21;5.47;;;2.50;;
19032;SDS011;9649;51.042;13.804;2022-09-12T18:36:25;4.05;;;2.85;;
19032;SDS011;9649;51.042;13.804;2022-09-12T18:41:29;7.97;;;2.60;;
19032;SDS011;9649;51.042;13.804;2022-09-12T18:46:33;6.13;;;3.03;;
19032;SDS011;9649;51.042;13.804;2022-09-12T18:51:36;3.45;;;2.70;;
19032;SDS011;9649;51.042;13.804;2022-09-12T18:56:43;6.18;;;3.20;;
19032;SDS011;9649;51.042;13.804;2022-09-12T19:01:46;5.18;;;2.83;;
19032;SDS011;9649;51.042;13.804;2022-09-12T19:06:50;4.35;;;3.00;;
19032;SDS011;9649;51.042;13.804;2022-09-12T19:11:54;3.92;;;2.50;;
19032;SDS011;9649;51.042;13.804;2022-09-12T19:16:59;5.15;;;2.83;;
19032;SDS011;9649;51.042;13.804;2022-09-12T19:22:14;3.88;;;2.90;;
19032;SDS011;9649;51.042;13.804;2022-09-12T20:54:19;4.55;;;3.25;;
19032;SDS011;9649;51.042;13.804;2022-09-12T20:59:22;11.15;;;5.70;;
19032;SDS011;9649;51.042;13.804;2022-09-12T21:04:27;4.57;;;3.88;;
19032;SDS011;9649;51.042;13.804;2022-09-12T21:09:31;5.72;;;4.43;;
19032;SDS011;9649;51.042;13.804;2022-09-12T21:14:33;9.88;;;3.83;;
19032;SDS011;9649;51.042;13.804;2022-09-12T21:19:36;6.72;;;4.18;;
19032;SDS011;9649;51.042;13.804;2022-09-12T21:24:40;4.20;;;3.30;;
19032;SDS011;9649;51.042;13.804;2022-09-12T21:29:43;5.97;;;3.50;;
19032;SDS011;9649;51.042;13.804;2022-09-12T21:34:47;6.32;;;3.47;;
19032;SDS011;9649;51.042;13.804;2022-09-12T21:39:54;4.15;;;3.45;;
19032;SDS011;9649;51.042;13.804;2022-09-12T21:44:57;5.38;;;3.72;;
19032;SDS011;9649;51.042;13.804;2022-09-12T21:50:00;4.25;;;3.10;;
19032;SDS011;9649;51.042;13.804;2022-09-12T21:55:04;6.15;;;3.90;;
19032;SDS011;9649;51.042;13.804;2022-09-12T22:00:09;4.25;;;3.30;;
19032;SDS011;9649;51.042;13.804;2022-09-12T22:05:15;3.90;;;3.50;;
19032;SDS011;9649;51.042;13.804;2022-09-12T22:10:21;6.20;;;3.60;;
19032;SDS011;9649;51.042;13.804;2022-09-12T22:15:25;5.00;;;3.30;;
19032;SDS011;9649;51.042;13.804;2022-09-12T22:20:43;5.82;;;4.03;;
19032;SDS011;9649;51.042;13.804;2022-09-12T22:25:47;4.43;;;3.45;;
19032;SDS011;9649;51.042;13.804;2022-09-12T22:30:50;5.60;;;4.50;;
19032;SDS011;9649;51.042;13.804;2022-09-12T22:35:54;5.20;;;4.63;;
19032;SDS011;9649;51.042;13.804;2022-09-12T22:41:00;5.78;;;4.13;;
19032;SDS011;9649;51.042;13.804;2022-09-12T22:46:05;6.00;;;3.20;;
19032;SDS011;9649;51.042;13.804;2022-09-12T22:51:08;5.20;;;3.50;;
19032;SDS011;9649;51.042;13.804;2022-09-12T22:56:13;4.25;;;3.58;;
19032;SDS011;9649;51.042;13.804;2022-09-12T23:01:17;4.28;;;3.25;;
19032;SDS011;9649;51.042;13.804;2022-09-12T23:06:19;4.75;;;3.40;;
19032;SDS011;9649;51.042;13.804;2022-09-12T23:11:23;5.00;;;3.40;;
19032;SDS011;9649;51.042;13.804;2022-09-12T23:16:27;6.22;;;3.33;;
19032;SDS011;9649;51.042;13.804;2022-09-12T23:21:32;5.57;;;3.67;;
19032;SDS011;9649;51.042;13.804;2022-09-12T23:26:36;8.73;;;3.72;;
19032;SDS011;9649;51.042;13.804;2022-09-12T23:31:38;8.70;;;4.25;;
19032;SDS011;9649;51.042;13.804;2022-09-12T23:36:41;6.68;;;3.50;;
19032;SDS011;9649;51.042;13.804;2022-09-12T23:41:45;6.90;;;4.03;;
19032;SDS011;9649;51.042;13.804;2022-09-12T23:46:48;6.13;;;4.30;;
19032;SDS011;9649;51.042;13.804;2022-09-12T23:51:50;5.20;;;3.80;;
19032;SDS011;9649;51.042;13.804;2022-09-12T23:56:55;4.85;;;3.78;;
